Terminal Aerodrome Forecast
Issued by NWS Cleveland, OH

Home | Current Version | Previous Version | Graphics & Text | Print | Product List | Glossary Off
Versions: 1 2 3 4 5 6 7 8 9 10 11 12 13 14 15 16 17

000
FTUS41 KCLE 301600 AAA
TAFMFD
TAF AMD
KMFD 301616Z 3016/3112 31015G25KT 5SM -SHSN SCT015 OVC025
     FM301900 31015KT P6SM OVC030
     FM302200 30006KT P6SM SCT025 BKN035
     FM310200 VRB03KT P6SM SCT150 BKN200=

USA.gov is the U.S. government's official web portal to all federal, state and local government web resources and services.